Time;durP1;ratioP1;P1;durP2;ratioP2;P2;SDS_P1;SDS_P2;PMS_P1;PMS_P2;Temp;Humidity;BMP_temperature;BMP_pressure;BME280_temperature;BME280_humidity;BME280_pressure;Samples;Min_cycle;Max_cycle;Signal;HPM_P1;HPM_P2
2021/08/22 09:57:54;;;;;;;1.58;1.48;;;;;;;;;;5111791;27;20054;-48
2021/08/22 10:00:20;;;;;;;;;;;;;;;;;;5085417;28;20597;-50
2021/08/22 10:02:49;;;;;;;1.75;1.45;;;;;;;;;;5095618;28;19935;-50
2021/08/22 10:05:19;;;;;;;1.88;1.52;;;;;;;;;;5092640;28;20487;-47
2021/08/22 10:07:47;;;;;;;3.38;1.85;;;;;;;;;;5080182;28;20024;-49
2021/08/22 10:10:15;;;;;;;2.13;1.60;;;;;;;;;;5079958;28;20029;-50
2021/08/22 10:12:42;;;;;;;2.08;1.55;;;;;;;;;;5106080;28;20031;-48
2021/08/22 10:15:10;;;;;;;2.08;1.50;;;;;;;;;;5100662;28;20054;-48
2021/08/22 10:17:36;;;;;;;1.52;1.42;;;;;;;;;;5083568;28;20040;-51
2021/08/22 10:20:02;;;;;;;2.92;1.50;;;;;;;;;;5092296;28;20024;-48
2021/08/22 10:22:31;;;;;;;3.03;1.30;;;;;;;;;;5092510;28;20077;-52
2021/08/22 10:25:00;;;;;;;1.92;1.33;;;;;;;;;;5094892;28;20469;-47
2021/08/22 10:27:36;;;;;;;1.73;1.60;;;;;;;;;;5101017;28;20020;-47
2021/08/22 10:30:03;;;;;;;2.20;1.40;;;;;;;;;;5107639;28;20047;-51
2021/08/22 10:32:53;;;;;;;1.23;1.13;;;;;;;;;;5089054;28;20035;-51
2021/08/22 10:35:19;;;;;;;1.42;1.33;;;;;;;;;;5094048;28;20102;-47
2021/08/22 10:37:46;;;;;;;1.65;1.35;;;;;;;;;;5108143;28;20030;-46
2021/08/22 10:40:24;;;;;;;2.35;1.25;;;;;;;;;;5103883;28;20089;-46
2021/08/22 10:43:10;;;;;;;1.80;1.70;;;;;;;;;;5108841;28;20030;-47
2021/08/22 10:45:52;;;;;;;1.17;1.10;;;;;;;;;;5110476;28;20357;-48
2021/08/22 10:48:24;;;;;;;2.08;1.30;;;;;;;;;;5110881;28;20031;-50
2021/08/22 10:50:59;;;;;;;1.33;1.33;;;;;;;;;;5111167;28;20035;-48
2021/08/22 10:53:33;;;;;;;2.13;1.50;;;;;;;;;;5107087;28;20500;-48
2021/08/22 10:55:59;;;;;;;1.73;1.30;;;;;;;;;;5110727;28;20024;-49
2021/08/22 10:58:44;;;;;;;1.40;1.30;;;;;;;;;;5110520;28;20046;-49
2021/08/22 11:01:19;;;;;;;3.85;1.42;;;;;;;;;;5109121;28;20032;-46
2021/08/22 11:04:04;;;;;;;1.85;1.40;;;;;;;;;;5107178;28;20019;-46
2021/08/22 11:06:30;;;;;;;1.30;1.20;;;;;;;;;;5108979;28;20034;-46
2021/08/22 11:08:56;;;;;;;2.47;1.38;;;;;;;;;;5109866;28;20027;-49
2021/08/22 11:11:22;;;;;;;1.70;1.20;;;;;;;;;;5110435;28;20020;-47
2021/08/22 11:13:55;;;;;;;1.80;1.50;;;;;;;;;;5109979;28;20019;-47
2021/08/22 11:16:22;;;;;;;1.43;1.33;;;;;;;;;;5106007;28;20027;-49
2021/08/22 11:18:48;;;;;;;1.38;1.27;;;;;;;;;;5109243;28;20028;-49
2021/08/22 11:21:14;;;;;;;1.65;1.30;;;;;;;;;;5116255;28;20491;-50
2021/08/22 11:23:40;;;;;;;1.20;1.10;;;;;;;;;;5117578;28;20072;-48
2021/08/22 11:26:07;;;;;;;1.35;1.25;;;;;;;;;;5118652;28;20027;-47
2021/08/22 11:28:34;;;;;;;1.67;1.58;;;;;;;;;;5118745;28;20019;-48
2021/08/22 11:31:00;;;;;;;1.40;1.30;;;;;;;;;;5118663;28;20023;-49
2021/08/22 11:33:29;;;;;;;1.65;1.45;;;;;;;;;;5115826;28;20020;-47
2021/08/22 11:35:55;;;;;;;1.83;1.33;;;;;;;;;;5098460;28;20057;-46
2021/08/22 11:38:22;;;;;;;1.30;1.27;;;;;;;;;;5115078;28;20028;-47
2021/08/22 11:40:48;;;;;;;1.60;1.30;;;;;;;;;;5116932;28;20035;-46
2021/08/22 11:43:15;;;;;;;1.30;1.17;;;;;;;;;;5096564;28;20480;-48
2021/08/22 11:45:42;;;;;;;1.50;1.40;;;;;;;;;;5115119;28;20365;-50
2021/08/22 11:48:14;;;;;;;1.27;1.23;;;;;;;;;;5116351;28;20020;-50
2021/08/22 11:50:40;;;;;;;1.55;1.45;;;;;;;;;;5116715;28;20123;-46
2021/08/22 11:53:07;;;;;;;1.80;1.67;;;;;;;;;;5098193;28;20384;-50
2021/08/22 11:55:34;;;;;;;1.50;1.40;;;;;;;;;;5116627;28;20023;-51
2021/08/22 11:58:13;;;;;;;1.65;1.55;;;;;;;;;;5116900;28;20058;-48
2021/08/22 12:00:44;;;;;;;2.78;1.40;;;;;;;;;;5112788;28;20030;-48
2021/08/22 12:03:14;;;;;;;1.35;1.25;;;;;;;;;;5113153;28;20118;-50
2021/08/22 12:05:55;;;;;;;1.50;1.40;;;;;;;;;;5096678;28;20023;-49
2021/08/22 12:08:21;;;;;;;1.40;1.30;;;;;;;;;;5115559;28;20103;-50
2021/08/22 12:10:48;;;;;;;2.38;1.63;;;;;;;;;;5098590;28;20024;-53
2021/08/22 12:13:21;;;;;;;1.48;1.30;;;;;;;;;;5117230;28;20378;-48
2021/08/22 12:15:48;;;;;;;1.40;1.30;;;;;;;;;;5116866;28;20016;-47
2021/08/22 12:18:17;;;;;;;1.30;1.20;;;;;;;;;;5116908;28;20482;-46
2021/08/22 12:20:44;;;;;;;1.50;1.40;;;;;;;;;;5116893;28;20024;-47
2021/08/22 12:23:11;;;;;;;2.35;1.33;;;;;;;;;;5114665;28;20034;-47
2021/08/22 12:25:38;;;;;;;1.42;1.30;;;;;;;;;;5116699;28;20028;-48
2021/08/22 12:28:24;;;;;;;1.48;1.15;;;;;;;;;;5116921;28;20084;-47
2021/08/22 12:31:01;;;;;;;1.40;1.23;;;;;;;;;;5114524;28;20099;-49
2021/08/22 12:33:34;;;;;;;1.40;1.30;;;;;;;;;;5109891;28;20015;-47
2021/08/22 12:36:01;;;;;;;1.83;1.40;;;;;;;;;;5103340;28;20028;-48
2021/08/22 12:38:44;;;;;;;1.10;1.10;;;;;;;;;;5094487;28;20123;-50
2021/08/22 12:41:29;;;;;;;4.27;1.27;;;;;;;;;;5094246;28;20030;-48
2021/08/22 12:43:56;;;;;;;1.30;1.10;;;;;;;;;;5094048;28;20090;-51
2021/08/22 12:46:23;;;;;;;1.88;1.77;;;;;;;;;;5094042;28;20031;-48
2021/08/22 12:48:49;;;;;;;1.88;1.50;;;;;;;;;;5094355;28;20028;-51
2021/08/22 12:51:15;;;;;;;1.33;1.23;;;;;;;;;;5094096;28;20027;-49
2021/08/22 12:53:41;;;;;;;1.35;1.25;;;;;;;;;;5094245;28;20496;-48
2021/08/22 12:56:07;;;;;;;1.65;1.55;;;;;;;;;;5094596;28;20037;-48
2021/08/22 12:58:33;;;;;;;1.23;1.10;;;;;;;;;;5075705;28;20079;-47
2021/08/22 13:01:00;;;;;;;1.50;1.40;;;;;;;;;;5093866;28;20048;-49
2021/08/22 13:03:26;;;;;;;1.85;1.58;;;;;;;;;;5092529;28;20539;-49
2021/08/22 13:05:52;;;;;;;1.35;1.25;;;;;;;;;;5093731;28;20031;-49
2021/08/22 13:08:18;;;;;;;1.30;1.20;;;;;;;;;;5093260;28;20054;-49
2021/08/22 13:10:44;;;;;;;1.63;1.52;;;;;;;;;;5092314;28;20032;-48
2021/08/22 13:13:10;;;;;;;1.67;1.35;;;;;;;;;;5093559;28;20392;-52
2021/08/22 13:15:36;;;;;;;2.08;1.38;;;;;;;;;;5093365;28;20077;-52
2021/08/22 13:18:02;;;;;;;1.00;1.00;;;;;;;;;;5092842;28;20020;-48
2021/08/22 13:20:28;;;;;;;1.48;1.38;;;;;;;;;;5091910;28;20460;-48
2021/08/22 13:22:56;;;;;;;2.75;1.13;;;;;;;;;;5092026;28;20377;-52
2021/08/22 13:25:22;;;;;;;2.15;1.27;;;;;;;;;;5091843;28;20035;-50
2021/08/22 13:27:48;;;;;;;1.02;0.95;;;;;;;;;;5092167;28;20024;-51
2021/08/22 13:30:14;;;;;;;1.42;1.30;;;;;;;;;;5091681;28;20032;-47
2021/08/22 13:32:40;;;;;;;3.75;0.93;;;;;;;;;;5092445;28;20035;-47
2021/08/22 13:35:06;;;;;;;3.78;1.30;;;;;;;;;;5092921;28;20028;-48
2021/08/22 13:37:32;;;;;;;1.38;1.10;;;;;;;;;;5093140;28;20024;-50
2021/08/22 13:39:58;;;;;;;2.20;1.50;;;;;;;;;;5091691;28;20473;-47
2021/08/22 13:42:25;;;;;;;1.50;1.25;;;;;;;;;;5092991;28;20103;-49
2021/08/22 13:44:51;;;;;;;1.02;0.88;;;;;;;;;;5091806;28;20032;-51
2021/08/22 13:47:17;;;;;;;0.93;0.93;;;;;;;;;;5092745;28;20088;-48
2021/08/22 13:49:43;;;;;;;2.58;1.23;;;;;;;;;;5091652;28;20055;-51
2021/08/22 13:52:09;;;;;;;1.33;1.10;;;;;;;;;;5092773;28;20028;-49
2021/08/22 13:54:35;;;;;;;1.23;1.13;;;;;;;;;;5092999;28;20107;-48
2021/08/22 13:57:01;;;;;;;1.15;1.15;;;;;;;;;;5092728;28;20048;-48
2021/08/22 13:59:27;;;;;;;1.02;0.98;;;;;;;;;;5092940;28;20028;-50
2021/08/22 14:01:53;;;;;;;1.27;1.02;;;;;;;;;;5092443;28;20459;-48
2021/08/22 14:04:19;;;;;;;0.90;0.90;;;;;;;;;;5091303;28;20031;-51
2021/08/22 14:06:45;;;;;;;1.02;1.02;;;;;;;;;;5092393;28;20020;-50
2021/08/22 14:09:11;;;;;;;1.40;1.27;;;;;;;;;;5092323;28;20031;-52
2021/08/22 14:11:37;;;;;;;1.75;1.30;;;;;;;;;;5074313;28;20020;-46
2021/08/22 14:14:03;;;;;;;0.80;0.80;;;;;;;;;;5092285;28;20028;-48
2021/08/22 14:16:30;;;;;;;1.05;0.95;;;;;;;;;;5092283;28;20515;-51
2021/08/22 14:18:56;;;;;;;0.80;0.80;;;;;;;;;;5092134;28;20515;-51
2021/08/22 14:21:24;;;;;;;1.00;1.00;;;;;;;;;;5092125;28;20016;-49
2021/08/22 14:23:50;;;;;;;1.30;1.20;;;;;;;;;;5092366;28;20043;-51
2021/08/22 14:26:16;;;;;;;1.23;1.13;;;;;;;;;;5092248;28;20064;-51
2021/08/22 14:28:42;;;;;;;1.20;1.10;;;;;;;;;;5092056;28;20457;-50
2021/08/22 14:31:08;;;;;;;2.05;1.00;;;;;;;;;;5090790;28;20391;-49
2021/08/22 14:33:34;;;;;;;0.93;0.90;;;;;;;;;;5091938;28;20473;-51
2021/08/22 14:36:00;;;;;;;1.10;1.00;;;;;;;;;;5091948;28;20031;-49
2021/08/22 14:38:26;;;;;;;1.15;1.15;;;;;;;;;;5091908;28;20031;-49
2021/08/22 14:40:54;;;;;;;1.50;1.40;;;;;;;;;;5091842;28;20035;-52
2021/08/22 14:43:20;;;;;;;1.15;1.15;;;;;;;;;;5090533;28;20036;-51
2021/08/22 14:45:46;;;;;;;0.60;0.60;;;;;;;;;;5091899;28;20043;-49
2021/08/22 14:48:12;;;;;;;0.93;0.93;;;;;;;;;;5091772;28;20012;-49
2021/08/22 14:50:39;;;;;;;1.05;0.95;;;;;;;;;;5091768;28;20032;-51
2021/08/22 14:53:05;;;;;;;1.30;1.20;;;;;;;;;;5091698;28;20028;-52
2021/08/22 14:55:31;;;;;;;1.70;1.10;;;;;;;;;;5073051;28;20028;-51
2021/08/22 14:57:57;;;;;;;1.88;1.17;;;;;;;;;;5091859;28;20040;-48
2021/08/22 15:00:24;;;;;;;1.70;1.10;;;;;;;;;;5091681;28;20024;-51
2021/08/22 15:02:50;;;;;;;1.95;1.63;;;;;;;;;;5091744;28;20484;-50
2021/08/22 15:05:16;;;;;;;1.30;1.20;;;;;;;;;;5091831;28;20563;-50
2021/08/22 15:07:42;;;;;;;3.58;1.10;;;;;;;;;;5091850;28;20472;-49
2021/08/22 15:10:09;;;;;;;1.30;1.20;;;;;;;;;;5073346;28;20020;-49
2021/08/22 15:12:38;;;;;;;1.90;1.40;;;;;;;;;;5091590;28;20107;-50
2021/08/22 15:15:05;;;;;;;1.30;1.20;;;;;;;;;;5091593;28;20024;-49
2021/08/22 15:17:31;;;;;;;1.98;1.25;;;;;;;;;;5091844;28;20528;-51
2021/08/22 15:19:58;;;;;;;1.55;1.45;;;;;;;;;;5073549;28;20232;-50
2021/08/22 15:22:24;;;;;;;1.38;1.27;;;;;;;;;;5091987;28;20369;-49
2021/08/22 15:24:51;;;;;;;2.60;1.42;;;;;;;;;;5091379;28;20032;-51
2021/08/22 15:27:17;;;;;;;1.30;1.20;;;;;;;;;;5091305;28;20024;-51
2021/08/22 15:29:44;;;;;;;1.40;1.30;;;;;;;;;;5073272;28;20488;-51
2021/08/22 15:32:10;;;;;;;2.58;1.52;;;;;;;;;;5091518;28;20036;-51
2021/08/22 15:34:36;;;;;;;1.58;1.42;;;;;;;;;;5091343;28;20035;-52
2021/08/22 15:37:03;;;;;;;1.90;0.98;;;;;;;;;;5091111;28;20028;-52
2021/08/22 15:39:29;;;;;;;1.38;0.98;;;;;;;;;;5091196;28;20028;-51
2021/08/22 15:41:55;;;;;;;1.63;1.52;;;;;;;;;;5091300;28;20024;-47
2021/08/22 15:44:21;;;;;;;1.40;1.30;;;;;;;;;;5091189;28;20016;-51
2021/08/22 15:46:47;;;;;;;1.65;1.52;;;;;;;;;;5091137;28;20021;-48
2021/08/22 15:49:13;;;;;;;2.28;1.60;;;;;;;;;;5073117;28;20384;-47
2021/08/22 15:51:40;;;;;;;1.58;1.48;;;;;;;;;;5091004;28;20028;-47
2021/08/22 15:54:08;;;;;;;1.80;1.70;;;;;;;;;;5090885;28;20103;-51
2021/08/22 15:56:34;;;;;;;1.95;1.85;;;;;;;;;;5090766;28;20028;-51
2021/08/22 15:59:00;;;;;;;2.88;1.80;;;;;;;;;;5090902;28;20546;-47
2021/08/22 16:01:26;;;;;;;1.92;1.83;;;;;;;;;;5091053;28;20023;-49
2021/08/22 16:03:52;;;;;;;2.20;1.98;;;;;;;;;;5090904;28;20043;-47
2021/08/22 16:06:18;;;;;;;3.42;1.48;;;;;;;;;;5091015;28;20012;-48
2021/08/22 16:08:44;;;;;;;1.50;1.40;;;;;;;;;;5094558;28;20483;-48
2021/08/22 16:11:12;;;;;;;2.58;1.70;;;;;;;;;;5094820;28;20028;-49
2021/08/22 16:13:38;;;;;;;2.08;1.65;;;;;;;;;;5093390;28;20024;-51
2021/08/22 16:16:04;;;;;;;1.50;1.40;;;;;;;;;;5093433;28;20028;-50
2021/08/22 16:18:33;;;;;;;1.30;1.30;;;;;;;;;;5094583;28;20042;-52
2021/08/22 16:20:59;;;;;;;1.60;1.50;;;;;;;;;;5094618;28;20089;-53
2021/08/22 16:23:25;;;;;;;1.60;1.50;;;;;;;;;;5093135;28;20024;-51
2021/08/22 16:25:52;;;;;;;3.13;1.67;;;;;;;;;;5093234;28;20032;-52
2021/08/22 16:28:18;;;;;;;1.98;1.80;;;;;;;;;;5094515;28;20028;-49
2021/08/22 16:30:45;;;;;;;3.83;1.80;;;;;;;;;;5094423;28;20465;-50
2021/08/22 16:33:11;;;;;;;2.15;1.95;;;;;;;;;;5093022;28;20357;-50
2021/08/22 16:35:37;;;;;;;2.30;1.63;;;;;;;;;;5094131;28;20098;-49
2021/08/22 16:38:03;;;;;;;1.90;1.80;;;;;;;;;;5094706;28;20035;-49
2021/08/22 16:40:29;;;;;;;2.95;1.80;;;;;;;;;;5094278;28;20024;-50
2021/08/22 16:42:55;;;;;;;2.10;1.90;;;;;;;;;;5094455;28;20062;-47
2021/08/22 16:45:21;;;;;;;1.98;1.77;;;;;;;;;;5094220;28;20024;-49
2021/08/22 16:47:48;;;;;;;3.22;1.77;;;;;;;;;;5094416;28;20016;-52
2021/08/22 16:50:14;;;;;;;1.77;1.65;;;;;;;;;;5093931;28;20027;-49
2021/08/22 16:52:40;;;;;;;2.30;1.90;;;;;;;;;;5094011;28;20396;-52
2021/08/22 16:55:07;;;;;;;1.90;1.80;;;;;;;;;;5093992;28;20380;-49
2021/08/22 16:57:34;;;;;;;2.80;2.03;;;;;;;;;;5092470;28;20043;-50
2021/08/22 17:00:00;;;;;;;3.88;1.58;;;;;;;;;;5093773;28;20024;-51
2021/08/22 17:02:28;;;;;;;5.50;2.10;;;;;;;;;;5093713;28;20025;-50
2021/08/22 17:04:54;;;;;;;3.28;2.25;;;;;;;;;;5093868;28;20020;-51
2021/08/22 17:07:20;;;;;;;1.55;1.45;;;;;;;;;;5093713;28;20028;-50
2021/08/22 17:09:46;;;;;;;2.42;2.15;;;;;;;;;;5093554;28;20107;-47
2021/08/22 17:12:12;;;;;;;4.38;2.28;;;;;;;;;;5093660;28;20487;-52
2021/08/22 17:14:38;;;;;;;3.40;1.95;;;;;;;;;;5093570;28;20396;-49
2021/08/22 17:17:05;;;;;;;2.70;2.50;;;;;;;;;;5093582;28;20024;-48
2021/08/22 17:19:31;;;;;;;2.10;1.73;;;;;;;;;;5093156;28;20499;-48
2021/08/22 17:21:58;;;;;;;3.30;2.25;;;;;;;;;;5093497;28;20460;-51
2021/08/22 17:24:24;;;;;;;3.40;2.33;;;;;;;;;;5093579;28;20476;-47
2021/08/22 17:26:51;;;;;;;5.07;2.10;;;;;;;;;;5093435;28;20020;-49
2021/08/22 17:29:17;;;;;;;2.22;1.90;;;;;;;;;;5092224;28;20032;-49
2021/08/22 17:31:43;;;;;;;2.67;1.92;;;;;;;;;;5093288;28;20029;-52
2021/08/22 17:34:09;;;;;;;2.28;1.90;;;;;;;;;;5091996;28;20035;-47
2021/08/22 17:36:35;;;;;;;1.88;1.73;;;;;;;;;;5092028;28;20038;-51
2021/08/22 17:39:02;;;;;;;3.15;2.13;;;;;;;;;;5091747;28;20055;-51
2021/08/22 17:41:28;;;;;;;3.55;2.03;;;;;;;;;;5093111;28;20020;-50
2021/08/22 17:43:54;;;;;;;2.20;2.00;;;;;;;;;;5092823;28;20020;-48
2021/08/22 17:46:20;;;;;;;3.38;2.30;;;;;;;;;;5112197;28;20031;-52
2021/08/22 17:48:47;;;;;;;2.28;2.08;;;;;;;;;;5110324;28;20136;-51
2021/08/22 17:51:14;;;;;;;3.17;2.33;;;;;;;;;;5107910;28;20482;-51
2021/08/22 17:53:42;;;;;;;3.47;2.00;;;;;;;;;;5106343;28;20106;-50
2021/08/22 17:56:08;;;;;;;2.58;2.38;;;;;;;;;;5090238;28;20023;-52
2021/08/22 17:58:35;;;;;;;2.60;2.05;;;;;;;;;;5092414;28;20122;-49
2021/08/22 18:01:01;;;;;;;2.53;2.33;;;;;;;;;;5087351;28;20387;-50
2021/08/22 18:03:28;;;;;;;2.38;2.17;;;;;;;;;;5111721;28;20380;-48
2021/08/22 18:05:54;;;;;;;2.80;2.00;;;;;;;;;;5093563;28;20031;-49
2021/08/22 18:08:20;;;;;;;4.22;2.40;;;;;;;;;;5111539;28;20081;-51
2021/08/22 18:10:46;;;;;;;2.78;2.50;;;;;;;;;;5112097;28;20036;-49
2021/08/22 18:13:12;;;;;;;3.33;2.92;;;;;;;;;;5109220;28;20023;-48
2021/08/22 18:15:39;;;;;;;4.10;2.40;;;;;;;;;;5109533;28;20028;-52
2021/08/22 18:18:05;;;;;;;2.58;2.38;;;;;;;;;;5105720;28;20363;-47
2021/08/22 18:20:31;;;;;;;6.78;2.47;;;;;;;;;;5104936;28;20038;-48
2021/08/22 18:22:57;;;;;;;3.58;2.33;;;;;;;;;;5104614;28;20031;-52
2021/08/22 18:25:23;;;;;;;5.93;2.65;;;;;;;;;;5088159;28;20024;-48
2021/08/22 18:27:50;;;;;;;2.90;2.60;;;;;;;;;;5108903;28;20072;-51
2021/08/22 18:30:16;;;;;;;7.57;2.80;;;;;;;;;;5108716;28;20035;-52
2021/08/22 18:32:42;;;;;;;4.65;2.63;;;;;;;;;;5111080;28;20043;-53
2021/08/22 18:35:09;;;;;;;7.15;3.10;;;;;;;;;;5110799;28;20053;-48
2021/08/22 18:37:36;;;;;;;6.35;2.90;;;;;;;;;;5110581;28;20023;-49
2021/08/22 18:40:03;;;;;;;4.72;2.70;;;;;;;;;;5087940;28;20028;-47
2021/08/22 18:42:29;;;;;;;3.35;2.65;;;;;;;;;;5107493;28;20019;-50
2021/08/22 18:44:55;;;;;;;3.97;2.95;;;;;;;;;;5107505;28;20377;-48
2021/08/22 18:47:21;;;;;;;3.08;2.80;;;;;;;;;;5108680;28;20023;-48
2021/08/22 18:49:47;;;;;;;4.38;2.85;;;;;;;;;;5108619;28;20036;-50
2021/08/22 18:52:13;;;;;;;3.83;3.10;;;;;;;;;;5108716;28;20105;-46
2021/08/22 18:54:39;;;;;;;4.28;2.50;;;;;;;;;;5091250;28;20032;-52
2021/08/22 18:57:06;;;;;;;2.90;2.60;;;;;;;;;;5105791;28;20043;-47
2021/08/22 18:59:32;;;;;;;5.38;3.30;;;;;;;;;;5108665;28;20023;-48
2021/08/22 19:01:58;;;;;;;3.35;3.05;;;;;;;;;;5105601;28;20027;-47
2021/08/22 19:04:24;;;;;;;4.50;3.33;;;;;;;;;;5108203;28;20094;-52
2021/08/22 19:06:50;;;;;;;5.95;2.83;;;;;;;;;;5108930;28;20280;-51
2021/08/22 19:09:17;;;;;;;6.68;2.95;;;;;;;;;;5108860;28;20032;-52
2021/08/22 19:11:43;;;;;;;9.85;2.63;;;;;;;;;;5090346;28;20024;-48
2021/08/22 19:14:09;;;;;;;4.13;2.60;;;;;;;;;;5107613;28;20536;-50
2021/08/22 19:16:35;;;;;;;3.42;2.50;;;;;;;;;;5107954;28;20066;-49
2021/08/22 19:19:01;;;;;;;3.22;2.63;;;;;;;;;;5106553;28;20024;-50
2021/08/22 19:21:27;;;;;;;4.70;2.28;;;;;;;;;;5108836;28;20073;-50
2021/08/22 19:23:53;;;;;;;4.78;3.03;;;;;;;;;;5108022;28;20040;-48
2021/08/22 19:26:19;;;;;;;3.70;3.00;;;;;;;;;;5108782;28;20020;-50
2021/08/22 19:28:45;;;;;;;5.10;3.10;;;;;;;;;;5109003;28;20035;-50
2021/08/22 19:31:11;;;;;;;4.43;2.67;;;;;;;;;;5108018;28;20073;-51
2021/08/22 19:33:37;;;;;;;4.75;2.90;;;;;;;;;;5089197;28;20032;-47
2021/08/22 19:36:07;;;;;;;3.88;2.97;;;;;;;;;;5109006;28;20012;-49
2021/08/22 19:38:33;;;;;;;4.75;3.10;;;;;;;;;;5109093;28;20384;-51
2021/08/22 19:40:59;;;;;;;2.85;2.60;;;;;;;;;;5109083;28;20053;-46
2021/08/22 19:43:27;;;;;;;4.15;3.22;;;;;;;;;;5113444;28;20095;-49
2021/08/22 19:45:54;;;;;;;4.00;3.30;;;;;;;;;;5112513;28;20024;-49
2021/08/22 19:48:20;;;;;;;3.97;3.03;;;;;;;;;;5111527;28;20015;-46
2021/08/22 19:50:46;;;;;;;3.90;3.13;;;;;;;;;;5092051;28;20031;-49
2021/08/22 19:53:13;;;;;;;4.07;3.00;;;;;;;;;;5094413;28;20083;-45
2021/08/22 19:55:39;;;;;;;4.90;3.40;;;;;;;;;;5109690;28;20032;-48
2021/08/22 19:58:05;;;;;;;4.75;2.90;;;;;;;;;;5098066;28;20044;-46
2021/08/22 20:00:31;;;;;;;5.10;2.90;;;;;;;;;;5090923;28;20111;-46
2021/08/22 20:02:59;;;;;;;3.47;2.90;;;;;;;;;;5089573;28;20030;-50
2021/08/22 20:05:25;;;;;;;3.47;3.08;;;;;;;;;;5090383;28;20020;-46
2021/08/22 20:07:52;;;;;;;3.80;2.80;;;;;;;;;;5089587;28;20028;-46
2021/08/22 20:10:18;;;;;;;4.35;3.05;;;;;;;;;;5086850;28;20484;-48
2021/08/22 20:12:45;;;;;;;3.50;3.13;;;;;;;;;;5085746;28;20028;-49
2021/08/22 21:16:53;;;;;;;6.05;4.07;;;;;;;;;;5104603;27;20086;-47
2021/08/22 21:19:19;;;;;;;8.52;6.93;;;;;;;;;;5092152;28;20057;-50
2021/08/22 21:21:48;;;;;;;7.60;5.40;;;;;;;;;;5086791;28;20024;-50
2021/08/22 21:24:15;;;;;;;6.60;5.38;;;;;;;;;;5081774;28;20021;-46
2021/08/22 21:26:41;;;;;;;10.85;5.78;;;;;;;;;;5073393;28;20021;-46
2021/08/22 21:29:07;;;;;;;8.63;5.07;;;;;;;;;;5085856;28;20473;-46
2021/08/22 21:31:33;;;;;;;7.43;4.88;;;;;;;;;;5093524;28;20024;-50
2021/08/22 21:34:00;;;;;;;8.85;4.40;;;;;;;;;;5093405;28;20472;-50
2021/08/22 21:36:26;;;;;;;6.97;4.70;;;;;;;;;;5093325;28;20024;-48
2021/08/22 21:38:52;;;;;;;5.63;4.07;;;;;;;;;;5084855;28;20381;-53
2021/08/22 21:41:18;;;;;;;5.07;4.22;;;;;;;;;;5093216;28;20027;-49
2021/08/22 21:43:44;;;;;;;4.97;4.25;;;;;;;;;;5083334;28;20079;-48
2021/08/22 21:46:10;;;;;;;5.80;4.13;;;;;;;;;;5072893;28;20035;-49
2021/08/22 21:48:36;;;;;;;4.60;3.75;;;;;;;;;;5072873;28;20028;-48
2021/08/22 21:51:03;;;;;;;6.20;4.18;;;;;;;;;;5054836;28;20029;-47
2021/08/22 21:53:29;;;;;;;7.75;4.07;;;;;;;;;;5072917;28;20028;-46
2021/08/22 21:55:55;;;;;;;6.43;5.20;;;;;;;;;;5072710;28;20028;-49
2021/08/22 21:58:21;;;;;;;9.27;5.78;;;;;;;;;;5072833;28;20028;-46
2021/08/22 22:00:47;;;;;;;8.75;5.78;;;;;;;;;;5072557;28;20025;-47
2021/08/22 22:03:16;;;;;;;6.60;5.20;;;;;;;;;;5072537;28;20032;-49
2021/08/22 22:05:42;;;;;;;9.25;5.60;;;;;;;;;;5071475;28;20103;-47
2021/08/22 22:08:08;;;;;;;10.05;6.68;;;;;;;;;;5063390;28;20016;-46
2021/08/22 22:10:34;;;;;;;8.60;6.45;;;;;;;;;;5092763;28;20028;-47
2021/08/22 22:13:01;;;;;;;11.95;7.68;;;;;;;;;;5092712;28;20032;-48
2021/08/22 22:15:27;;;;;;;11.82;7.97;;;;;;;;;;5092618;28;20085;-46
2021/08/22 22:17:53;;;;;;;11.15;7.28;;;;;;;;;;5103238;28;20043;-47
2021/08/22 22:20:19;;;;;;;11.98;7.38;;;;;;;;;;5112990;28;20082;-49
2021/08/22 22:22:45;;;;;;;13.30;7.57;;;;;;;;;;5112897;28;20072;-46
2021/08/22 22:25:11;;;;;;;13.13;7.38;;;;;;;;;;5112833;28;20023;-47
2021/08/22 22:27:38;;;;;;;14.45;8.30;;;;;;;;;;5112840;28;20023;-46
2021/08/22 22:30:04;;;;;;;13.45;8.80;;;;;;;;;;5112683;28;20051;-49
2021/08/22 22:32:30;;;;;;;15.82;8.90;;;;;;;;;;5112607;28;20403;-48
2021/08/22 22:34:56;;;;;;;13.35;8.98;;;;;;;;;;5112566;28;20024;-48
2021/08/22 22:37:22;;;;;;;15.57;9.85;;;;;;;;;;5112607;28;20031;-47
2021/08/22 22:39:48;;;;;;;16.02;10.15;;;;;;;;;;5112626;28;20027;-48
2021/08/22 22:42:14;;;;;;;15.02;8.45;;;;;;;;;;5112573;28;20020;-50
2021/08/22 22:44:40;;;;;;;14.40;9.30;;;;;;;;;;5112500;28;20012;-45
2021/08/22 22:47:06;;;;;;;16.40;9.27;;;;;;;;;;5112574;28;20384;-46
2021/08/22 22:49:32;;;;;;;14.77;8.25;;;;;;;;;;5112368;28;20456;-46
2021/08/22 22:51:58;;;;;;;12.57;8.60;;;;;;;;;;5112396;28;20397;-46
2021/08/22 22:54:24;;;;;;;14.70;9.70;;;;;;;;;;5112261;28;20476;-47
2021/08/22 22:56:50;;;;;;;16.85;9.68;;;;;;;;;;5112329;28;20193;-47
2021/08/22 22:59:16;;;;;;;12.95;9.18;;;;;;;;;;5112256;28;20028;-46
2021/08/22 23:01:42;;;;;;;14.73;8.85;;;;;;;;;;5093955;28;20016;-46
2021/08/22 23:04:08;;;;;;;17.23;9.55;;;;;;;;;;5091816;28;20073;-47
2021/08/22 23:06:34;;;;;;;16.77;10.07;;;;;;;;;;5091941;28;20099;-50
2021/08/22 23:09:00;;;;;;;17.13;10.25;;;;;;;;;;5091832;28;20027;-47
2021/08/22 23:11:26;;;;;;;15.02;9.73;;;;;;;;;;5091898;28;20024;-48
2021/08/22 23:13:52;;;;;;;17.80;10.55;;;;;;;;;;5091802;28;20031;-47
2021/08/22 23:16:18;;;;;;;17.10;10.25;;;;;;;;;;5091474;28;20024;-46
2021/08/22 23:18:44;;;;;;;19.33;11.35;;;;;;;;;;5073629;28;20048;-45
2021/08/22 23:21:11;;;;;;;19.70;11.63;;;;;;;;;;5073426;28;20467;-48
2021/08/22 23:23:37;;;;;;;16.00;10.48;;;;;;;;;;5091764;28;20025;-49
2021/08/22 23:26:10;;;;;;;19.05;10.80;;;;;;;;;;5091647;28;20027;-48
2021/08/22 23:28:37;;;;;;;15.70;9.82;;;;;;;;;;5091566;28;20023;-49
2021/08/22 23:31:03;;;;;;;18.13;10.38;;;;;;;;;;5091464;28;20043;-50
2021/08/22 23:33:29;;;;;;;17.30;10.45;;;;;;;;;;5091720;28;20111;-47
2021/08/22 23:35:55;;;;;;;18.90;10.52;;;;;;;;;;5091915;28;20034;-46
2021/08/22 23:38:21;;;;;;;18.90;10.38;;;;;;;;;;5091502;28;20409;-48
2021/08/22 23:40:48;;;;;;;20.40;11.23;;;;;;;;;;5091483;28;20492;-47
2021/08/22 23:43:14;;;;;;;15.40;10.45;;;;;;;;;;5091451;28;20112;-46
2021/08/22 23:45:40;;;;;;;17.80;11.23;;;;;;;;;;5091255;28;20016;-46
2021/08/22 23:48:06;;;;;;;20.45;10.73;;;;;;;;;;5091459;28;20028;-46
2021/08/22 23:50:32;;;;;;;21.92;10.70;;;;;;;;;;5091339;28;20031;-48
2021/08/22 23:52:58;;;;;;;17.20;11.00;;;;;;;;;;5091391;28;20032;-47
2021/08/22 23:55:25;;;;;;;18.70;10.68;;;;;;;;;;5091432;28;20032;-49
2021/08/22 23:57:51;;;;;;;17.77;11.07;;;;;;;;;;5091298;28;20036;-45
